createdAt,value
2023-02-24T00:01:18.866Z,6.80
2023-02-24T00:03:21.280Z,7.60
2023-02-24T00:05:25.149Z,6.85
2023-02-24T00:07:30.136Z,6.75
2023-02-24T00:09:33.465Z,8.63
2023-02-24T00:11:38.063Z,7.05
2023-02-24T00:13:41.452Z,8.27
2023-02-24T00:15:43.869Z,7.25
2023-02-24T00:17:46.735Z,7.70
2023-02-24T00:19:48.881Z,8.82
2023-02-24T00:21:52.335Z,8.25
2023-02-24T00:23:55.309Z,8.30
2023-02-24T00:26:00.664Z,7.80
2023-02-24T00:28:03.075Z,8.50
2023-02-24T00:30:06.689Z,8.05
2023-02-24T00:32:12.827Z,8.65
2023-02-24T00:34:16.133Z,6.88
2023-02-24T00:36:24.821Z,7.75
2023-02-24T00:38:31.771Z,8.23
2023-02-24T00:40:37.326Z,7.75
2023-02-24T00:42:40.167Z,8.70
2023-02-24T00:44:46.402Z,7.97
2023-02-24T00:46:48.720Z,9.20
2023-02-24T00:48:55.053Z,8.85
2023-02-24T00:51:00.799Z,9.43
2023-02-24T00:53:02.865Z,8.55
2023-02-24T00:55:14.125Z,7.38
2023-02-24T00:57:18.602Z,8.90
2023-02-24T00:59:23.990Z,8.57
2023-02-24T01:01:31.257Z,8.88
2023-02-24T01:03:33.885Z,9.20
2023-02-24T01:05:36.783Z,8.82
2023-02-24T01:07:39.353Z,9.00
2023-02-24T01:09:41.918Z,9.30
2023-02-24T01:12:04.567Z,8.13
2023-02-24T01:14:15.781Z,8.85
2023-02-24T01:16:18.865Z,8.82
2023-02-24T01:18:21.038Z,9.15
2023-02-24T01:20:23.430Z,9.07
2023-02-24T01:22:26.118Z,8.70
2023-02-24T01:24:31.107Z,9.02
2023-02-24T01:26:33.194Z,9.25
2023-02-24T01:28:37.482Z,9.40
2023-02-24T01:30:40.987Z,8.50
2023-02-24T01:32:44.567Z,8.77
2023-02-24T01:34:47.613Z,8.25
2023-02-24T01:36:50.248Z,8.25
2023-02-24T01:38:52.924Z,9.48
2023-02-24T01:41:05.121Z,9.77
2023-02-24T01:43:08.875Z,9.70
2023-02-24T01:45:18.651Z,9.43
2023-02-24T01:47:21.552Z,8.57
2023-02-24T01:49:29.814Z,9.35
2023-02-24T01:51:38.038Z,9.23
2023-02-24T01:53:40.488Z,9.45
2023-02-24T01:55:50.031Z,9.80
2023-02-24T01:57:54.005Z,9.13
2023-02-24T02:00:02.270Z,9.35
2023-02-24T02:02:08.874Z,10.15
2023-02-24T02:04:28.925Z,10.35
2023-02-24T02:08:39.243Z,9.73
2023-02-24T02:10:44.309Z,8.85
2023-02-24T02:12:46.918Z,10.52
2023-02-24T02:14:54.644Z,8.82
2023-02-24T02:17:09.542Z,10.35
2023-02-24T02:19:42.943Z,9.55
2023-02-24T02:22:00.783Z,9.13
2023-02-24T02:24:28.501Z,9.20
2023-02-24T02:26:49.349Z,9.30
2023-02-24T02:29:16.301Z,8.85
2023-02-24T02:31:46.875Z,9.68
2023-02-24T02:34:08.420Z,10.45
2023-02-24T02:36:16.545Z,10.00
2023-02-24T02:38:43.194Z,9.70
2023-02-24T02:41:03.933Z,9.85
2023-02-24T02:43:17.228Z,9.50
2023-02-24T02:45:33.573Z,9.57
2023-02-24T02:47:36.297Z,9.30
2023-02-24T02:49:46.129Z,10.15
2023-02-24T02:54:27.307Z,10.68
2023-02-24T02:56:56.814Z,9.35
2023-02-24T02:59:00.812Z,9.45
2023-02-24T03:01:07.276Z,8.82
2023-02-24T03:03:14.032Z,9.57
2023-02-24T03:05:20.452Z,10.48
2023-02-24T03:07:31.070Z,9.45
2023-02-24T03:09:38.931Z,9.57
2023-02-24T03:11:42.630Z,9.93
2023-02-24T03:13:49.606Z,8.52
2023-02-24T03:16:00.134Z,9.20
2023-02-24T03:18:10.656Z,9.02
2023-02-24T03:20:22.623Z,9.07
2023-02-24T03:22:34.696Z,8.57
2023-02-24T03:24:41.381Z,10.18
2023-02-24T03:26:52.206Z,8.68
2023-02-24T03:29:00.262Z,9.23
2023-02-24T03:31:18.479Z,8.75
2023-02-24T03:33:24.412Z,10.52
2023-02-24T03:35:31.545Z,9.82
2023-02-24T03:37:33.727Z,9.15
2023-02-24T03:39:36.669Z,9.27
2023-02-24T03:41:56.338Z,8.43
2023-02-24T03:44:01.279Z,10.10
2023-02-24T03:46:05.580Z,9.07
2023-02-24T03:48:09.902Z,8.88
2023-02-24T03:50:22.565Z,9.63
2023-02-24T03:52:47.628Z,9.57
2023-02-24T03:54:55.524Z,8.98
2023-02-24T03:57:07.167Z,9.35
2023-02-24T03:59:38.612Z,8.65
2023-02-24T04:02:06.115Z,8.20
2023-02-24T04:04:38.056Z,7.82
2023-02-24T04:06:50.239Z,9.35
2023-02-24T04:09:35.068Z,9.65
2023-02-24T04:11:48.466Z,9.38
2023-02-24T04:14:01.970Z,8.43
2023-02-24T04:16:17.144Z,8.98
2023-02-24T04:18:24.038Z,8.38
2023-02-24T04:20:31.172Z,8.20
2023-02-24T04:22:33.815Z,8.40
2023-02-24T04:24:39.489Z,8.88
2023-02-24T04:26:46.959Z,8.93
2023-02-24T04:28:49.346Z,8.02
2023-02-24T04:30:59.248Z,9.82
2023-02-24T04:33:02.134Z,7.82
2023-02-24T04:35:07.803Z,8.98
2023-02-24T04:37:10.175Z,8.60
2023-02-24T04:39:13.150Z,8.70
2023-02-24T04:41:23.297Z,9.18
2023-02-24T04:45:30.180Z,9.45
2023-02-24T04:47:32.239Z,9.13
2023-02-24T04:49:34.869Z,8.60
2023-02-24T04:51:42.427Z,8.65
2023-02-24T04:53:44.752Z,8.85
2023-02-24T04:55:49.070Z,8.10
2023-02-24T04:57:58.333Z,7.80
2023-02-24T05:00:00.811Z,7.65
2023-02-24T05:02:03.348Z,8.30
2023-02-24T05:04:06.291Z,9.23
2023-02-24T05:06:14.142Z,8.73
2023-02-24T05:08:16.587Z,8.55
2023-02-24T05:10:28.571Z,8.52
2023-02-24T05:12:32.430Z,8.95
2023-02-24T05:14:34.898Z,8.15
2023-02-24T05:16:37.887Z,8.35
2023-02-24T05:18:40.602Z,8.60
2023-02-24T05:21:04.187Z,9.00
2023-02-24T05:23:09.980Z,7.82
2023-02-24T05:25:14.469Z,8.10
2023-02-24T05:27:17.593Z,8.95
2023-02-24T05:29:20.159Z,9.32
2023-02-24T05:31:28.534Z,7.85
2023-02-24T05:33:31.167Z,8.70
2023-02-24T05:35:36.722Z,7.82
2023-02-24T05:37:42.111Z,8.27
2023-02-24T05:39:51.034Z,8.10
2023-02-24T05:42:07.346Z,7.97
2023-02-24T05:44:16.527Z,8.30
2023-02-24T05:46:28.497Z,7.65
2023-02-24T05:48:35.455Z,7.70
2023-02-24T05:50:39.223Z,8.35
2023-02-24T05:52:45.846Z,8.38
2023-02-24T05:54:49.623Z,8.43
2023-02-24T05:56:52.530Z,7.68
2023-02-24T05:59:02.072Z,7.38
2023-02-24T06:01:16.224Z,7.63
2023-02-24T06:03:30.942Z,8.10
2023-02-24T06:05:33.773Z,7.57
2023-02-24T06:07:36.343Z,7.70
2023-02-24T06:09:40.381Z,7.03
2023-02-24T06:11:45.355Z,7.40
2023-02-24T06:13:48.188Z,6.45
2023-02-24T06:15:55.792Z,7.22
2023-02-24T06:18:01.021Z,7.53
2023-02-24T06:20:13.623Z,7.78
2023-02-24T06:22:19.525Z,7.55
2023-02-24T06:24:22.211Z,7.10
2023-02-24T06:26:29.940Z,6.60
2023-02-24T06:28:33.725Z,7.93
2023-02-24T06:30:37.869Z,7.40
2023-02-24T06:32:40.384Z,7.13
2023-02-24T06:34:45.865Z,6.65
2023-02-24T06:36:49.170Z,7.25
2023-02-24T06:38:52.797Z,7.70
2023-02-24T06:40:58.402Z,7.78
2023-02-24T06:43:01.166Z,7.65
2023-02-24T06:45:04.635Z,8.40
2023-02-24T06:47:13.138Z,7.88
2023-02-24T06:49:16.075Z,6.97
2023-02-24T06:51:18.753Z,7.95
2023-02-24T06:53:21.852Z,8.20
2023-02-24T06:55:27.512Z,7.65
2023-02-24T06:57:32.888Z,8.02
2023-02-24T06:59:35.656Z,6.65
2023-02-24T07:01:45.317Z,6.63
2023-02-24T07:04:07.055Z,7.35
2023-02-24T07:06:29.500Z,7.45
2023-02-24T07:08:32.358Z,7.35
2023-02-24T07:10:35.064Z,6.47
2023-02-24T07:12:37.820Z,7.20
2023-02-24T07:14:40.712Z,8.00
2023-02-24T07:16:45.674Z,6.57
2023-02-24T07:18:48.924Z,7.25
2023-02-24T07:20:51.835Z,7.00
2023-02-24T07:22:54.285Z,7.22
2023-02-24T07:25:00.801Z,7.03
2023-02-24T07:27:23.078Z,6.55
2023-02-24T07:29:26.984Z,7.47
2023-02-24T07:31:29.198Z,7.60
2023-02-24T07:33:34.372Z,7.20
2023-02-24T07:35:36.903Z,7.32
2023-02-24T07:37:39.621Z,7.13
2023-02-24T07:39:44.856Z,6.95
2023-02-24T07:41:49.753Z,7.10
2023-02-24T07:43:54.108Z,7.15
2023-02-24T07:45:58.105Z,7.53
2023-02-24T07:48:01.833Z,7.25
2023-02-24T07:50:10.622Z,9.13
2023-02-24T07:52:13.118Z,7.38
2023-02-24T07:54:15.885Z,8.50
2023-02-24T07:56:20.639Z,7.38
2023-02-24T07:58:23.480Z,8.25
2023-02-24T08:00:28.431Z,8.15
2023-02-24T08:02:31.267Z,7.85
2023-02-24T08:04:36.461Z,8.07
2023-02-24T08:06:46.154Z,7.90
2023-02-24T08:08:58.318Z,8.35
2023-02-24T08:11:04.219Z,8.07
2023-02-24T08:13:06.810Z,7.35
2023-02-24T08:15:17.449Z,10.15
2023-02-24T08:17:26.522Z,8.43
2023-02-24T08:19:39.585Z,7.28
2023-02-24T08:21:47.359Z,7.30
2023-02-24T08:23:49.717Z,7.18
2023-02-24T08:25:53.715Z,8.68
2023-02-24T08:28:08.870Z,7.63
2023-02-24T08:30:23.701Z,8.32
2023-02-24T08:32:37.262Z,7.70
2023-02-24T08:34:39.665Z,7.80
2023-02-24T08:36:48.498Z,8.23
2023-02-24T08:38:52.320Z,8.07
2023-02-24T08:40:55.935Z,8.25
2023-02-24T08:43:17.442Z,8.63
2023-02-24T08:45:22.127Z,7.57
2023-02-24T08:47:31.086Z,7.57
2023-02-24T08:49:34.126Z,7.97
2023-02-24T08:51:43.880Z,7.22
2023-02-24T08:55:51.898Z,7.38
2023-02-24T08:57:56.327Z,7.32
2023-02-24T08:59:59.255Z,8.18
2023-02-24T09:02:24.455Z,8.50
2023-02-24T09:04:28.040Z,8.68
2023-02-24T09:06:51.244Z,7.20
2023-02-24T09:09:16.595Z,8.30
2023-02-24T09:11:22.995Z,7.55
2023-02-24T09:13:33.186Z,7.63
2023-02-24T09:15:41.543Z,8.90
2023-02-24T09:17:45.780Z,7.72
2023-02-24T09:19:50.331Z,7.60
2023-02-24T09:21:52.380Z,8.07
2023-02-24T09:23:56.029Z,7.45
2023-02-24T09:25:58.187Z,8.35
2023-02-24T09:28:08.731Z,8.60
2023-02-24T09:30:32.686Z,9.45
2023-02-24T09:32:35.320Z,8.50
2023-02-24T09:34:45.618Z,7.50
2023-02-24T09:37:01.549Z,8.73
2023-02-24T09:39:03.743Z,7.97
2023-02-24T09:41:32.222Z,8.05
2023-02-24T09:43:44.294Z,8.15
2023-02-24T09:45:58.590Z,7.55
2023-02-24T09:48:16.916Z,8.32
2023-02-24T09:50:40.616Z,8.98
2023-02-24T09:52:43.113Z,9.38
2023-02-24T09:55:11.025Z,9.48
2023-02-24T09:57:20.036Z,9.38
2023-02-24T09:59:36.594Z,9.20
2023-02-24T10:01:43.340Z,9.55
2023-02-24T10:04:14.968Z,9.02
2023-02-24T10:06:29.180Z,8.88
2023-02-24T10:08:38.318Z,11.07
2023-02-24T10:11:00.865Z,9.70
2023-02-24T10:13:30.344Z,9.77
2023-02-24T10:15:59.520Z,9.27
2023-02-24T10:18:28.841Z,10.02
2023-02-24T10:20:40.630Z,9.98
2023-02-24T10:22:52.013Z,8.60
2023-02-24T10:25:11.086Z,8.77
2023-02-24T10:27:33.338Z,8.85
2023-02-24T10:29:55.858Z,9.98
2023-02-24T10:32:24.431Z,9.95
2023-02-24T10:34:31.982Z,8.77
2023-02-24T10:36:35.948Z,9.63
2023-02-24T10:38:45.445Z,10.68
2023-02-24T10:40:59.783Z,8.73
2023-02-24T10:43:10.701Z,8.93
2023-02-24T10:45:23.786Z,8.77
2023-02-24T10:47:32.290Z,8.85
2023-02-24T10:49:50.799Z,9.02
2023-02-24T10:51:53.500Z,9.10
2023-02-24T10:54:22.402Z,9.15
2023-02-24T10:56:27.726Z,10.48
2023-02-24T10:58:38.242Z,9.38
2023-02-24T11:01:12.961Z,9.07
2023-02-24T11:03:32.602Z,8.98
2023-02-24T11:06:01.665Z,9.95
2023-02-24T11:08:37.671Z,8.38
2023-02-24T11:10:58.982Z,9.15
2023-02-24T11:13:20.494Z,8.73
2023-02-24T11:15:47.717Z,9.80
2023-02-24T11:17:57.012Z,9.25
2023-02-24T11:20:11.098Z,8.53
2023-02-24T11:22:23.558Z,10.10
2023-02-24T11:24:26.392Z,8.48
2023-02-24T11:26:36.199Z,8.90
2023-02-24T11:28:47.700Z,9.10
2023-02-24T11:30:52.890Z,9.43
2023-02-24T11:33:07.276Z,9.68
2023-02-24T11:35:27.879Z,8.13
2023-02-24T11:37:38.118Z,8.75
2023-02-24T11:40:00.896Z,8.02
2023-02-24T11:42:11.550Z,9.38
2023-02-24T11:44:28.797Z,9.00
2023-02-24T11:46:36.751Z,8.27
2023-02-24T11:48:57.746Z,9.60
2023-02-24T11:51:20.187Z,8.05
2023-02-24T11:53:29.176Z,7.88
2023-02-24T11:55:43.076Z,8.40
2023-02-24T11:57:51.060Z,9.73
2023-02-24T12:00:05.965Z,8.70
2023-02-24T12:02:53.238Z,8.88
2023-02-24T12:05:06.649Z,9.65
2023-02-24T12:07:50.498Z,8.32
2023-02-24T12:10:17.406Z,10.40
2023-02-24T12:12:28.589Z,8.27
2023-02-24T12:14:32.972Z,9.88
2023-02-24T12:16:45.896Z,9.32
2023-02-24T12:19:02.438Z,8.65
2023-02-24T12:21:15.119Z,9.50
2023-02-24T12:23:33.112Z,8.63
2023-02-24T12:26:08.921Z,10.35
2023-02-24T12:28:35.617Z,9.05
2023-02-24T12:30:57.647Z,9.23
2023-02-24T12:33:31.069Z,9.95
2023-02-24T12:35:40.775Z,9.73
2023-02-24T12:38:14.898Z,9.55
2023-02-24T12:40:36.999Z,9.15
2023-02-24T12:42:57.602Z,9.40
2023-02-24T12:45:35.357Z,9.57
2023-02-24T12:48:04.192Z,10.50
2023-02-24T12:50:34.222Z,9.97
2023-02-24T12:53:13.679Z,10.93
2023-02-24T12:55:22.356Z,10.60
2023-02-24T12:57:33.578Z,10.18
2023-02-24T12:59:39.853Z,10.57
2023-02-24T13:02:07.919Z,10.85
2023-02-24T13:04:38.148Z,11.10
2023-02-24T13:07:01.044Z,11.23
2023-02-24T13:09:24.264Z,11.25
2023-02-24T13:11:48.996Z,10.98
2023-02-24T13:14:28.902Z,11.75
2023-02-24T13:16:33.817Z,11.18
2023-02-24T13:18:39.581Z,12.18
2023-02-24T13:20:42.978Z,10.98
2023-02-24T13:22:48.124Z,11.38
2023-02-24T13:25:10.256Z,11.50
2023-02-24T13:27:33.915Z,10.93
2023-02-24T13:29:47.677Z,12.10
2023-02-24T13:31:53.375Z,11.40
2023-02-24T13:33:55.657Z,11.82
2023-02-24T13:36:23.058Z,11.95
2023-02-24T13:38:30.895Z,12.82
2023-02-24T13:40:33.437Z,12.30
2023-02-24T13:42:36.016Z,13.73
2023-02-24T13:44:52.480Z,13.02
2023-02-24T13:47:32.506Z,12.77
2023-02-24T13:49:48.956Z,13.27
2023-02-24T13:51:59.310Z,12.75
2023-02-24T13:54:32.416Z,14.30
2023-02-24T13:56:37.125Z,12.80
2023-02-24T13:58:57.713Z,12.75
2023-02-24T14:01:07.401Z,14.00
2023-02-24T14:05:24.410Z,13.48
2023-02-24T14:07:33.967Z,13.95
2023-02-24T14:09:48.527Z,14.05
2023-02-24T14:11:55.927Z,13.98
2023-02-24T14:13:59.181Z,14.05
2023-02-24T14:16:07.936Z,14.88
2023-02-24T14:18:23.334Z,13.02
2023-02-24T14:20:27.192Z,12.95
2023-02-24T14:22:29.290Z,12.98
2023-02-24T14:24:31.721Z,13.18
2023-02-24T14:26:47.618Z,13.52
2023-02-24T14:28:58.108Z,14.85
2023-02-24T14:31:11.598Z,12.00
2023-02-24T14:33:33.165Z,14.25
2023-02-24T14:35:39.239Z,14.90
2023-02-24T14:37:42.819Z,12.95
2023-02-24T14:39:53.551Z,14.35
2023-02-24T14:42:07.733Z,13.98
2023-02-24T14:44:22.478Z,14.38
2023-02-24T14:46:25.457Z,14.15
2023-02-24T14:48:30.682Z,14.38
2023-02-24T14:50:34.642Z,14.07
2023-02-24T14:52:42.428Z,15.02
2023-02-24T14:54:53.064Z,13.52
2023-02-24T14:59:46.429Z,14.85
2023-02-24T15:01:51.821Z,13.45
2023-02-24T15:04:01.825Z,14.38
2023-02-24T15:06:13.321Z,14.32
2023-02-24T15:08:31.446Z,14.50
2023-02-24T15:10:33.776Z,14.45
2023-02-24T15:12:47.847Z,14.77
2023-02-24T15:15:08.287Z,14.75
2023-02-24T15:17:16.784Z,14.68
2023-02-24T15:19:34.047Z,13.50
2023-02-24T15:21:41.001Z,17.13
2023-02-24T15:23:44.652Z,15.45
2023-02-24T15:25:47.656Z,16.15
2023-02-24T15:28:22.419Z,14.52
2023-02-24T15:30:40.007Z,16.15
2023-02-24T15:32:42.382Z,15.70
2023-02-24T15:34:48.087Z,16.88
2023-02-24T15:36:53.682Z,16.05
2023-02-24T15:39:03.788Z,16.20
2023-02-24T15:41:07.746Z,17.33
2023-02-24T15:43:30.759Z,17.00
2023-02-24T15:45:36.567Z,18.83
2023-02-24T15:47:46.159Z,15.13
2023-02-24T15:49:48.282Z,17.00
2023-02-24T15:51:53.214Z,16.80
2023-02-24T15:53:55.481Z,15.82
2023-02-24T15:55:57.946Z,15.93
2023-02-24T15:58:02.792Z,16.35
2023-02-24T16:00:13.372Z,17.63
2023-02-24T16:02:19.889Z,17.92
2023-02-24T16:04:23.712Z,17.42
2023-02-24T16:06:26.740Z,16.17
2023-02-24T16:08:29.280Z,17.75
2023-02-24T16:10:31.610Z,19.25
2023-02-24T16:12:39.506Z,18.48
2023-02-24T16:14:42.968Z,18.13
2023-02-24T16:16:46.065Z,18.55
2023-02-24T16:18:48.210Z,18.67
2023-02-24T16:20:57.233Z,18.48
2023-02-24T16:23:01.633Z,18.33
2023-02-24T16:25:05.160Z,18.88
2023-02-24T16:27:08.698Z,19.30
2023-02-24T16:29:14.822Z,20.45
2023-02-24T16:31:17.449Z,19.77
2023-02-24T16:33:23.781Z,18.60
2023-02-24T16:35:27.672Z,19.95
2023-02-24T16:37:30.390Z,20.13
2023-02-24T16:39:32.508Z,21.17
2023-02-24T16:41:34.877Z,21.45
2023-02-24T16:43:37.825Z,21.48
2023-02-24T16:45:42.169Z,21.77
2023-02-24T16:47:45.072Z,22.42
2023-02-24T16:49:47.543Z,22.23
2023-02-24T16:51:53.834Z,19.52
2023-02-24T16:53:56.244Z,19.42
2023-02-24T16:55:58.444Z,21.42
2023-02-24T16:58:00.842Z,23.10
2023-02-24T17:00:05.341Z,20.77
2023-02-24T17:02:18.849Z,22.65
2023-02-24T17:04:22.333Z,20.67
2023-02-24T17:06:26.277Z,21.42
2023-02-24T17:08:28.883Z,22.42
2023-02-24T17:10:33.588Z,21.38
2023-02-24T17:12:35.769Z,21.85
2023-02-24T17:14:38.622Z,22.40
2023-02-24T17:16:42.015Z,22.17
2023-02-24T17:18:44.541Z,21.45
2023-02-24T17:20:46.641Z,22.23
2023-02-24T17:22:49.202Z,22.48
2023-02-24T17:24:51.270Z,22.30
2023-02-24T17:26:53.830Z,20.90
2023-02-24T17:28:57.483Z,21.23
2023-02-24T17:30:59.969Z,21.67
2023-02-24T17:33:03.039Z,21.63
2023-02-24T17:35:08.354Z,22.10
2023-02-24T17:37:10.578Z,22.52
2023-02-24T17:39:14.141Z,22.70
2023-02-24T17:41:16.269Z,21.17
2023-02-24T17:43:21.876Z,22.70
2023-02-24T17:45:24.025Z,23.15
2023-02-24T17:47:29.691Z,25.92
2023-02-24T17:49:32.516Z,23.85
2023-02-24T17:51:35.324Z,24.40
2023-02-24T17:53:37.436Z,23.88
2023-02-24T17:55:55.850Z,22.60
2023-02-24T17:58:03.376Z,20.73
2023-02-24T18:00:07.449Z,22.30
2023-02-24T18:02:11.715Z,21.55
2023-02-24T18:04:16.900Z,19.90
2023-02-24T18:06:19.051Z,20.83
2023-02-24T18:08:21.888Z,19.90
2023-02-24T18:10:24.068Z,19.55
2023-02-24T18:12:29.348Z,18.80
2023-02-24T18:14:32.064Z,19.60
2023-02-24T18:16:34.529Z,20.85
2023-02-24T18:18:37.107Z,19.73
2023-02-24T18:20:43.486Z,17.40
2023-02-24T18:22:45.674Z,18.17
2023-02-24T18:24:48.302Z,18.92
2023-02-24T18:26:50.422Z,18.00
2023-02-24T18:28:53.895Z,16.92
2023-02-24T18:30:56.082Z,17.65
2023-02-24T18:32:58.850Z,15.27
2023-02-24T18:35:01.080Z,19.73
2023-02-24T18:37:03.624Z,15.43
2023-02-24T18:39:06.038Z,17.45
2023-02-24T18:41:11.886Z,15.18
2023-02-24T18:43:13.965Z,16.77
2023-02-24T18:45:16.483Z,15.25
2023-02-24T18:47:18.592Z,14.90
2023-02-24T18:49:21.080Z,14.63
2023-02-24T18:51:27.259Z,13.63
2023-02-24T18:53:36.893Z,14.48
2023-02-24T18:55:39.449Z,14.20
2023-02-24T18:57:41.934Z,12.32
2023-02-24T18:59:44.164Z,13.43
2023-02-24T19:01:46.833Z,12.57
2023-02-24T19:03:51.085Z,13.38
2023-02-24T19:05:53.493Z,12.50
2023-02-24T19:07:55.873Z,10.98
2023-02-24T19:09:58.365Z,10.95
2023-02-24T19:12:01.857Z,9.95
2023-02-24T19:14:05.326Z,9.73
2023-02-24T19:16:08.248Z,9.80
2023-02-24T19:18:10.836Z,9.43
2023-02-24T19:20:16.141Z,9.68
2023-02-24T19:22:18.502Z,11.70
2023-02-24T19:24:20.555Z,10.82
2023-02-24T19:26:25.658Z,10.40
2023-02-24T19:28:28.048Z,10.05
2023-02-24T19:30:31.910Z,9.45
2023-02-24T19:32:34.072Z,10.05
2023-02-24T19:34:37.141Z,10.23
2023-02-24T19:36:41.177Z,10.57
2023-02-24T19:38:44.096Z,10.30
2023-02-24T19:40:46.266Z,10.27
2023-02-24T19:42:51.911Z,10.57
2023-02-24T19:44:54.082Z,10.80
2023-02-24T19:46:56.644Z,10.30
2023-02-24T19:48:59.156Z,11.20
2023-02-24T19:51:22.949Z,11.13
2023-02-24T19:53:25.023Z,10.88
2023-02-24T19:55:27.420Z,9.57
2023-02-24T19:57:29.562Z,10.55
2023-02-24T19:59:31.982Z,10.25
2023-02-24T20:01:36.606Z,11.00
2023-02-24T20:03:41.326Z,9.27
2023-02-24T20:05:43.579Z,9.65
2023-02-24T20:07:46.407Z,8.30
2023-02-24T20:09:48.654Z,8.90
2023-02-24T20:11:51.508Z,8.20
2023-02-24T20:13:56.983Z,8.35
2023-02-24T20:16:08.250Z,7.15
2023-02-24T20:18:10.595Z,8.52
2023-02-24T20:20:13.241Z,8.52
2023-02-24T20:22:15.707Z,8.45
2023-02-24T20:24:19.546Z,9.75
2023-02-24T20:26:22.037Z,10.18
2023-02-24T20:28:27.001Z,11.05
2023-02-24T20:30:29.126Z,12.18
2023-02-24T20:32:31.659Z,13.23
2023-02-24T20:34:36.750Z,12.38
2023-02-24T20:36:40.359Z,13.60
2023-02-24T20:38:42.955Z,13.75
2023-02-24T20:40:45.593Z,12.93
2023-02-24T20:42:47.721Z,14.30
2023-02-24T20:44:50.093Z,14.88
2023-02-24T20:46:52.278Z,14.63
2023-02-24T20:49:01.221Z,16.65
2023-02-24T20:51:06.972Z,15.52
2023-02-24T20:53:15.721Z,15.73
2023-02-24T20:55:17.981Z,14.98
2023-02-24T20:57:20.474Z,14.88
2023-02-24T20:59:23.143Z,16.77
2023-02-24T21:01:26.292Z,15.65
2023-02-24T21:03:28.518Z,15.05
2023-02-24T21:05:30.908Z,13.07
2023-02-24T21:07:43.581Z,13.80
2023-02-24T21:10:02.146Z,13.10
2023-02-24T21:13:00.753Z,12.57
2023-02-24T21:15:03.774Z,13.30
2023-02-24T21:17:05.856Z,13.00
2023-02-24T21:19:08.236Z,12.40
2023-02-24T21:21:11.240Z,12.57
2023-02-24T21:23:13.998Z,13.90
2023-02-24T21:25:18.965Z,13.10
2023-02-24T21:27:21.380Z,14.02
2023-02-24T21:29:23.624Z,13.68
2023-02-24T21:31:26.814Z,13.80
2023-02-24T21:33:29.422Z,14.73
2023-02-24T21:35:31.798Z,14.77
2023-02-24T21:37:35.167Z,13.57
2023-02-24T21:39:37.667Z,15.80
2023-02-24T21:41:39.835Z,16.02
2023-02-24T21:43:44.347Z,15.25
2023-02-24T21:45:47.866Z,15.65
2023-02-24T21:47:50.786Z,15.27
2023-02-24T21:49:53.905Z,14.20
2023-02-24T21:51:59.578Z,14.98
2023-02-24T21:54:01.794Z,15.45
2023-02-24T21:56:16.842Z,14.30
2023-02-24T21:58:18.926Z,15.23
2023-02-24T22:00:22.383Z,14.65
2023-02-24T22:02:24.610Z,13.13
2023-02-24T22:04:27.048Z,14.07
2023-02-24T22:06:31.802Z,14.10
2023-02-24T22:08:34.350Z,14.63
2023-02-24T22:10:36.463Z,14.57
2023-02-24T22:12:39.159Z,15.23
2023-02-24T22:14:41.252Z,13.80
2023-02-24T22:16:44.330Z,14.32
2023-02-24T22:18:50.548Z,13.15
2023-02-24T22:20:53.649Z,14.05
2023-02-24T22:22:55.780Z,13.50
2023-02-24T22:24:58.248Z,13.15
2023-02-24T22:27:00.422Z,13.40
2023-02-24T22:29:02.885Z,14.50
2023-02-24T22:31:06.845Z,14.57
2023-02-24T22:33:09.296Z,14.07
2023-02-24T22:35:11.378Z,13.68
2023-02-24T22:37:14.044Z,12.18
2023-02-24T22:39:17.203Z,14.27
2023-02-24T22:41:22.451Z,13.43
2023-02-24T22:43:25.012Z,14.85
2023-02-24T22:45:27.475Z,12.98
2023-02-24T22:47:30.025Z,13.57
2023-02-24T22:49:32.516Z,13.45
2023-02-24T22:51:34.812Z,12.20
2023-02-24T22:53:39.598Z,11.48
2023-02-24T22:55:48.303Z,13.25
2023-02-24T22:57:50.759Z,12.18
2023-02-24T22:59:52.956Z,12.45
2023-02-24T23:01:55.338Z,12.57
2023-02-24T23:04:01.245Z,12.50
2023-02-24T23:06:09.462Z,12.90
2023-02-24T23:08:11.550Z,13.25
2023-02-24T23:10:14.047Z,12.70
2023-02-24T23:12:17.640Z,12.07
2023-02-24T23:14:20.698Z,12.52
2023-02-24T23:16:29.533Z,13.32
2023-02-24T23:18:37.034Z,13.57
2023-02-24T23:20:39.159Z,13.05
2023-02-24T23:22:41.721Z,12.32
2023-02-24T23:24:44.740Z,12.77
2023-02-24T23:26:51.452Z,13.10
2023-02-24T23:28:53.600Z,12.93
2023-02-24T23:30:56.222Z,13.10
2023-02-24T23:32:58.544Z,14.27
2023-02-24T23:35:01.440Z,12.95
2023-02-24T23:37:03.598Z,12.57
2023-02-24T23:39:08.958Z,13.32
2023-02-24T23:41:12.404Z,12.70
2023-02-24T23:43:16.464Z,13.75
2023-02-24T23:45:18.714Z,13.70
2023-02-24T23:47:21.336Z,12.90
2023-02-24T23:49:23.849Z,15.60
2023-02-24T23:51:29.328Z,15.15
2023-02-24T23:53:44.908Z,16.35
2023-02-24T23:55:47.272Z,15.40
2023-02-24T23:57:49.378Z,16.23
2023-02-24T23:59:52.148Z,15.02
